createdAt,value
2019-03-06T00:01:40.348Z,8.13
2019-03-06T00:04:08.465Z,9.93
2019-03-06T00:06:36.628Z,8.43
2019-03-06T00:09:05.608Z,8.63
2019-03-06T00:11:33.711Z,10.47
2019-03-06T00:14:01.920Z,8.47
2019-03-06T00:16:30.096Z,7.53
2019-03-06T00:18:58.240Z,8.77
2019-03-06T00:21:26.625Z,8.00
2019-03-06T00:23:54.722Z,8.57
2019-03-06T00:26:22.846Z,9.33
2019-03-06T00:28:51.024Z,8.07
2019-03-06T00:31:21.851Z,10.73
2019-03-06T00:33:50.362Z,7.67
2019-03-06T00:36:19.666Z,8.70
2019-03-06T00:38:48.005Z,7.57
2019-03-06T00:41:17.785Z,14.53
2019-03-06T00:43:45.976Z,8.17
2019-03-06T00:46:14.335Z,5.30
2019-03-06T00:48:42.437Z,11.13
2019-03-06T00:51:10.644Z,9.83
2019-03-06T00:53:38.747Z,6.30
2019-03-06T00:56:06.922Z,9.03
2019-03-06T00:58:35.084Z,7.03
2019-03-06T01:01:03.332Z,10.53
2019-03-06T01:03:31.444Z,6.53
2019-03-06T01:05:59.645Z,7.67
2019-03-06T01:08:27.836Z,6.83
2019-03-06T01:10:56.040Z,9.60
2019-03-06T01:13:24.222Z,7.97
2019-03-06T01:15:52.369Z,8.93
2019-03-06T01:18:20.471Z,7.37
2019-03-06T01:20:48.578Z,6.77
2019-03-06T01:23:16.719Z,5.63
2019-03-06T01:25:45.113Z,6.07
2019-03-06T01:28:13.314Z,7.40
2019-03-06T01:30:41.569Z,9.17
2019-03-06T01:33:23.711Z,5.23
2019-03-06T01:36:11.870Z,8.00
2019-03-06T01:38:41.977Z,6.23
2019-03-06T01:41:14.641Z,8.00
2019-03-06T01:43:44.661Z,6.60
2019-03-06T01:46:12.805Z,6.17
2019-03-06T01:48:40.916Z,5.53
2019-03-06T01:51:09.050Z,9.13
2019-03-06T01:53:37.234Z,8.13
2019-03-06T01:56:05.369Z,7.30
2019-03-06T01:58:33.482Z,6.80
2019-03-06T02:01:01.670Z,8.97
2019-03-06T02:03:29.802Z,9.60
2019-03-06T02:05:57.915Z,7.80
2019-03-06T02:08:26.092Z,13.63
2019-03-06T02:10:54.232Z,10.23
2019-03-06T02:13:23.010Z,8.67
2019-03-06T02:15:51.189Z,8.43
2019-03-06T02:18:19.318Z,9.37
2019-03-06T02:20:47.612Z,7.03
2019-03-06T02:23:15.727Z,9.37
2019-03-06T02:25:43.867Z,8.93
2019-03-06T02:28:12.108Z,12.10
2019-03-06T02:30:40.392Z,10.60
2019-03-06T02:33:08.584Z,7.10
2019-03-06T02:35:37.017Z,9.20
2019-03-06T02:38:05.281Z,8.73
2019-03-06T02:40:33.426Z,9.33
2019-03-06T02:43:01.540Z,8.03
2019-03-06T02:45:29.680Z,6.87
2019-03-06T02:47:57.862Z,10.20
2019-03-06T02:50:26.290Z,7.90
2019-03-06T02:52:54.545Z,10.00
2019-03-06T02:55:22.768Z,7.23
2019-03-06T02:57:52.590Z,9.10
2019-03-06T03:00:35.274Z,8.77
2019-03-06T03:03:14.600Z,8.90
2019-03-06T03:05:56.235Z,6.93
2019-03-06T03:08:24.336Z,5.77
2019-03-06T03:10:52.535Z,8.17
2019-03-06T03:13:20.673Z,8.10
2019-03-06T03:15:49.054Z,6.67
2019-03-06T03:18:17.232Z,10.13
2019-03-06T03:20:45.356Z,8.30
2019-03-06T03:23:13.736Z,6.93
2019-03-06T03:25:41.866Z,9.80
2019-03-06T03:28:09.971Z,6.13
2019-03-06T03:30:38.258Z,7.47
2019-03-06T03:33:06.452Z,8.17
2019-03-06T03:35:34.665Z,8.23
2019-03-06T03:38:02.782Z,13.20
2019-03-06T03:40:30.913Z,12.97
2019-03-06T03:42:59.099Z,5.27
2019-03-06T03:45:27.299Z,9.77
2019-03-06T03:47:55.544Z,7.57
2019-03-06T03:50:24.108Z,8.57
2019-03-06T03:52:52.275Z,12.30
2019-03-06T03:55:20.465Z,6.17
2019-03-06T03:57:48.664Z,8.07
2019-03-06T04:00:18.314Z,7.47
2019-03-06T04:02:46.506Z,5.70
2019-03-06T04:05:14.707Z,9.73
2019-03-06T04:07:42.882Z,8.87
2019-03-06T04:10:12.218Z,7.60
2019-03-06T04:12:40.360Z,8.47
2019-03-06T04:15:09.914Z,8.83
2019-03-06T04:17:38.348Z,7.00
2019-03-06T04:20:08.041Z,8.83
2019-03-06T04:22:36.178Z,7.77
2019-03-06T04:25:05.564Z,9.10
2019-03-06T04:27:33.692Z,5.60
2019-03-06T04:30:01.805Z,4.07
2019-03-06T04:32:29.931Z,8.60
2019-03-06T04:34:58.044Z,7.53
2019-03-06T04:37:26.168Z,6.70
2019-03-06T04:39:54.268Z,5.57
2019-03-06T04:42:22.406Z,6.73
2019-03-06T04:44:50.684Z,5.90
2019-03-06T04:47:18.789Z,6.00
2019-03-06T04:49:52.567Z,7.13
2019-03-06T04:52:16.761Z,7.27
2019-03-06T04:54:44.901Z,10.20
2019-03-06T04:57:13.290Z,8.90
2019-03-06T04:59:41.429Z,13.17
2019-03-06T05:02:09.535Z,8.60
2019-03-06T05:07:03.381Z,7.57
2019-03-06T05:09:31.524Z,13.97
2019-03-06T05:11:59.656Z,11.03
2019-03-06T05:14:29.480Z,8.93
2019-03-06T05:17:04.735Z,7.70
2019-03-06T05:19:33.049Z,8.90
2019-03-06T05:22:01.157Z,15.60
2019-03-06T05:24:29.302Z,12.43
2019-03-06T05:26:57.412Z,9.53
2019-03-06T05:29:25.814Z,12.57
2019-03-06T05:32:11.894Z,14.53
2019-03-06T05:34:40.101Z,15.67
2019-03-06T05:37:26.231Z,13.87
2019-03-06T05:39:54.364Z,15.47
2019-03-06T05:42:22.645Z,14.90
2019-03-06T05:44:50.781Z,15.87
2019-03-06T05:47:18.889Z,16.30
2019-03-06T05:49:47.029Z,20.33
2019-03-06T05:52:15.457Z,18.57
2019-03-06T05:54:43.764Z,15.20
2019-03-06T05:57:11.876Z,17.50
2019-03-06T05:59:39.992Z,15.53
2019-03-06T06:02:08.124Z,19.63
2019-03-06T06:04:36.676Z,17.40
2019-03-06T06:07:04.813Z,15.97
2019-03-06T06:09:32.928Z,16.63
2019-03-06T06:12:01.224Z,18.20
2019-03-06T06:14:29.336Z,17.47
2019-03-06T06:16:57.473Z,14.63
2019-03-06T06:19:25.675Z,20.80
2019-03-06T06:22:04.888Z,15.17
2019-03-06T06:24:32.996Z,15.20
2019-03-06T06:27:01.419Z,17.43
2019-03-06T06:29:29.668Z,17.80
2019-03-06T06:31:57.972Z,16.70
2019-03-06T06:34:26.080Z,17.40
2019-03-06T06:36:54.211Z,16.23
2019-03-06T06:39:22.314Z,16.13
2019-03-06T06:41:50.453Z,15.03
2019-03-06T06:44:21.441Z,12.87
2019-03-06T06:46:49.596Z,14.40
2019-03-06T06:49:17.705Z,14.47
2019-03-06T06:51:53.059Z,13.70
2019-03-06T06:54:28.627Z,6.87
2019-03-06T06:57:15.164Z,3.33
2019-03-06T06:59:57.099Z,3.30
2019-03-06T07:02:46.660Z,3.43
2019-03-06T07:05:19.312Z,6.13
2019-03-06T07:07:49.088Z,3.00
2019-03-06T07:10:37.093Z,2.67
2019-03-06T07:13:13.169Z,4.30
2019-03-06T07:15:48.597Z,2.97
2019-03-06T07:18:27.502Z,1.93
2019-03-06T07:21:06.325Z,2.97
2019-03-06T07:23:36.089Z,3.00
2019-03-06T07:26:06.024Z,4.87
2019-03-06T07:28:38.715Z,3.17
2019-03-06T07:31:17.542Z,3.73
2019-03-06T07:33:49.745Z,3.37
2019-03-06T07:36:35.967Z,5.93
2019-03-06T07:39:06.904Z,3.93
2019-03-06T07:41:39.396Z,2.90
2019-03-06T07:44:09.160Z,7.57
2019-03-06T07:46:44.739Z,5.37
2019-03-06T07:49:26.422Z,4.23
2019-03-06T07:52:11.090Z,4.30
2019-03-06T07:54:46.715Z,2.00
2019-03-06T07:57:16.537Z,5.00
2019-03-06T07:59:44.840Z,4.10
2019-03-06T08:02:23.463Z,4.30
2019-03-06T08:04:53.129Z,4.97
2019-03-06T08:07:21.228Z,3.43
2019-03-06T08:09:49.768Z,5.57
2019-03-06T08:12:25.677Z,3.43
2019-03-06T08:15:10.599Z,4.00
2019-03-06T08:17:58.983Z,3.60
2019-03-06T08:20:45.446Z,3.33
2019-03-06T08:23:18.245Z,5.17
2019-03-06T08:25:46.633Z,3.43
2019-03-06T08:28:14.984Z,6.50
2019-03-06T08:30:47.611Z,5.50
2019-03-06T08:33:18.502Z,4.77
2019-03-06T08:35:45.721Z,4.30
2019-03-06T08:38:13.856Z,4.73
2019-03-06T08:40:42.053Z,4.30
2019-03-06T08:43:10.192Z,5.17
2019-03-06T08:45:56.684Z,3.43
2019-03-06T08:48:26.487Z,4.20
2019-03-06T08:51:05.316Z,5.13
2019-03-06T08:53:51.793Z,5.60
2019-03-06T08:56:27.249Z,2.70
2019-03-06T08:59:12.164Z,4.83
2019-03-06T09:01:44.737Z,4.27
2019-03-06T09:04:17.406Z,6.53
2019-03-06T09:07:05.280Z,4.50
2019-03-06T09:09:40.847Z,5.87
2019-03-06T09:12:19.712Z,2.90
2019-03-06T09:14:58.636Z,5.40
2019-03-06T09:17:34.614Z,2.87
2019-03-06T09:20:10.373Z,6.70
2019-03-06T09:22:51.971Z,5.57
2019-03-06T09:25:27.671Z,5.20
2019-03-06T09:28:03.781Z,5.33
2019-03-06T09:30:39.657Z,6.23
2019-03-06T09:33:15.845Z,5.13
2019-03-06T09:35:48.507Z,4.23
2019-03-06T09:38:36.460Z,4.93
2019-03-06T09:41:18.656Z,5.17
2019-03-06T09:43:51.692Z,3.90
2019-03-06T09:46:24.195Z,4.50
2019-03-06T09:48:54.339Z,5.70
2019-03-06T09:51:36.010Z,4.47
2019-03-06T09:54:21.140Z,4.13
2019-03-06T09:56:50.964Z,3.63
2019-03-06T09:59:20.780Z,3.20
2019-03-06T10:02:07.023Z,3.43
2019-03-06T10:04:52.271Z,4.30
2019-03-06T10:07:22.060Z,2.83
2019-03-06T10:09:59.113Z,5.03
2019-03-06T10:12:26.381Z,3.37
2019-03-06T10:14:56.148Z,5.00
2019-03-06T10:17:35.061Z,3.20
2019-03-06T10:20:08.525Z,7.23
2019-03-06T10:22:36.708Z,3.10
2019-03-06T10:25:05.824Z,3.80
2019-03-06T10:27:33.982Z,4.93
2019-03-06T10:30:02.257Z,2.30
2019-03-06T10:32:30.428Z,7.37
2019-03-06T10:34:58.651Z,7.00
2019-03-06T10:37:26.830Z,3.53
2019-03-06T10:39:55.011Z,3.80
2019-03-06T10:42:23.195Z,2.63
2019-03-06T10:44:52.056Z,4.67
2019-03-06T10:47:20.391Z,4.87
2019-03-06T10:49:48.572Z,3.90
2019-03-06T10:52:16.776Z,4.47
2019-03-06T10:54:45.095Z,4.90
2019-03-06T10:57:13.355Z,2.80
2019-03-06T10:59:41.903Z,4.70
2019-03-06T11:02:10.182Z,3.37
2019-03-06T11:04:40.573Z,3.40
2019-03-06T11:07:08.944Z,6.03
2019-03-06T11:09:37.316Z,2.97
2019-03-06T11:12:06.276Z,5.43
2019-03-06T11:14:34.852Z,2.33
2019-03-06T11:17:03.126Z,3.37
2019-03-06T11:19:31.582Z,4.63
2019-03-06T11:21:59.778Z,3.13
2019-03-06T11:24:30.741Z,4.20
2019-03-06T11:26:59.209Z,3.57
2019-03-06T11:29:27.455Z,2.50
2019-03-06T11:31:55.692Z,3.47
2019-03-06T11:34:23.879Z,3.30
2019-03-06T11:36:52.088Z,4.33
2019-03-06T11:39:20.488Z,2.63
2019-03-06T11:41:48.722Z,4.03
2019-03-06T11:44:16.971Z,3.60
2019-03-06T11:46:45.244Z,4.40
2019-03-06T11:49:13.438Z,4.43
2019-03-06T11:51:41.693Z,4.00
2019-03-06T11:54:10.072Z,2.37
2019-03-06T11:56:38.273Z,3.13
2019-03-06T11:59:06.537Z,3.80
2019-03-06T12:01:35.486Z,2.93
2019-03-06T12:04:04.027Z,4.13
2019-03-06T12:06:32.302Z,3.73
2019-03-06T12:09:00.549Z,3.00
2019-03-06T12:11:29.320Z,3.73
2019-03-06T12:13:57.500Z,6.87
2019-03-06T12:16:25.739Z,3.87
2019-03-06T12:18:54.000Z,4.70
2019-03-06T12:21:22.134Z,2.00
2019-03-06T12:23:50.303Z,4.97
2019-03-06T12:26:18.527Z,4.07
2019-03-06T12:28:46.986Z,4.57
2019-03-06T12:31:15.237Z,2.30
2019-03-06T12:33:43.375Z,3.57
2019-03-06T12:36:11.631Z,2.30
2019-03-06T12:38:40.288Z,3.83
2019-03-06T12:41:08.556Z,6.00
2019-03-06T12:43:36.691Z,4.80
2019-03-06T12:46:09.502Z,5.37
2019-03-06T12:48:37.704Z,1.87
2019-03-06T12:51:05.937Z,4.07
2019-03-06T12:53:34.432Z,3.53
2019-03-06T12:56:02.916Z,4.93
2019-03-06T12:58:31.040Z,2.53
2019-03-06T13:00:59.160Z,3.37
2019-03-06T13:03:27.357Z,2.60
2019-03-06T13:05:55.528Z,3.23
2019-03-06T13:08:23.724Z,2.80
2019-03-06T13:10:51.981Z,2.67
2019-03-06T13:13:20.293Z,4.77
2019-03-06T13:15:48.477Z,3.03
2019-03-06T13:18:16.691Z,3.63
2019-03-06T13:20:44.936Z,8.20
2019-03-06T13:23:13.284Z,2.80
2019-03-06T13:25:41.417Z,2.90
2019-03-06T13:28:09.892Z,5.10
2019-03-06T13:30:38.163Z,5.13
2019-03-06T13:33:08.051Z,4.73
2019-03-06T13:35:40.237Z,6.13
2019-03-06T13:38:08.429Z,4.23
2019-03-06T13:40:36.651Z,3.83
2019-03-06T13:43:04.989Z,4.20
2019-03-06T13:45:33.188Z,4.30
2019-03-06T13:48:01.304Z,8.37
2019-03-06T13:50:29.547Z,7.13
2019-03-06T13:52:57.740Z,3.93
2019-03-06T13:55:26.070Z,4.37
2019-03-06T13:57:54.311Z,5.33
2019-03-06T14:00:23.082Z,4.57
2019-03-06T14:02:52.193Z,5.33
2019-03-06T14:05:21.527Z,3.03
2019-03-06T14:07:56.431Z,4.03
2019-03-06T14:10:21.193Z,4.30
2019-03-06T14:12:49.471Z,7.17
2019-03-06T14:15:17.750Z,6.07
2019-03-06T14:17:46.066Z,4.43
2019-03-06T14:20:15.759Z,3.50
2019-03-06T14:22:43.944Z,5.60
2019-03-06T14:25:13.155Z,5.60
2019-03-06T14:27:41.706Z,4.33
2019-03-06T14:30:11.373Z,4.60
2019-03-06T14:32:39.559Z,4.53
2019-03-06T14:35:07.803Z,5.67
2019-03-06T14:37:36.071Z,7.40
2019-03-06T14:40:17.995Z,9.03
2019-03-06T14:42:48.256Z,5.07
2019-03-06T14:45:16.156Z,4.03
2019-03-06T14:47:44.352Z,4.33
2019-03-06T14:50:12.523Z,4.60
2019-03-06T14:52:40.781Z,3.60
2019-03-06T14:55:10.756Z,3.77
2019-03-06T14:57:39.042Z,5.73
2019-03-06T15:00:09.003Z,5.90
2019-03-06T15:02:37.276Z,6.00
2019-03-06T15:05:05.457Z,5.63
2019-03-06T15:07:33.647Z,6.87
2019-03-06T15:10:01.753Z,5.47
2019-03-06T15:12:31.493Z,5.67
2019-03-06T15:14:59.892Z,4.27
2019-03-06T15:17:28.020Z,3.23
2019-03-06T15:19:59.040Z,4.23
2019-03-06T15:22:27.231Z,7.73
2019-03-06T15:24:55.421Z,6.07
2019-03-06T15:27:23.974Z,5.90
2019-03-06T15:29:52.153Z,5.17
2019-03-06T15:32:20.626Z,5.27
2019-03-06T15:34:48.805Z,4.30
2019-03-06T15:37:17.176Z,7.77
2019-03-06T15:39:48.627Z,5.03
2019-03-06T15:42:15.201Z,4.63
2019-03-06T15:44:44.676Z,4.23
2019-03-06T15:47:13.142Z,3.00
2019-03-06T15:49:41.272Z,2.90
2019-03-06T15:52:10.231Z,6.50
2019-03-06T15:54:38.701Z,5.50
2019-03-06T15:57:06.982Z,5.40
2019-03-06T15:59:35.244Z,6.50
2019-03-06T16:02:04.293Z,6.87
2019-03-06T16:04:32.663Z,5.77
2019-03-06T16:07:00.989Z,6.13
2019-03-06T16:09:29.173Z,5.37
2019-03-06T16:11:57.593Z,4.43
2019-03-06T16:14:25.800Z,5.23
2019-03-06T16:16:54.056Z,8.43
2019-03-06T16:19:22.251Z,5.63
2019-03-06T16:21:50.500Z,4.47
2019-03-06T16:24:19.096Z,5.87
2019-03-06T16:26:47.353Z,2.67
2019-03-06T16:29:15.561Z,3.50
2019-03-06T16:31:43.812Z,4.93
2019-03-06T16:34:12.120Z,4.43
2019-03-06T16:36:40.422Z,3.73
2019-03-06T16:39:08.620Z,4.87
2019-03-06T16:41:37.068Z,5.60
2019-03-06T16:44:05.320Z,4.87
2019-03-06T16:46:33.564Z,4.20
2019-03-06T16:49:02.376Z,5.17
2019-03-06T16:51:30.647Z,7.00
2019-03-06T16:53:58.903Z,6.50
2019-03-06T16:56:27.378Z,6.90
2019-03-06T16:58:55.628Z,5.27
2019-03-06T17:01:24.618Z,4.77
2019-03-06T17:03:53.709Z,5.30
2019-03-06T17:06:21.988Z,6.50
2019-03-06T17:08:53.163Z,4.97
2019-03-06T17:11:21.629Z,5.77
2019-03-06T17:13:49.880Z,6.27
2019-03-06T17:16:18.008Z,5.73
2019-03-06T17:18:46.105Z,7.90
2019-03-06T17:21:14.381Z,18.53
2019-03-06T17:23:42.476Z,9.57
2019-03-06T17:26:10.744Z,9.20
2019-03-06T17:28:38.847Z,8.73
2019-03-06T17:31:07.041Z,7.17
2019-03-06T17:33:35.232Z,27.53
2019-03-06T17:36:05.135Z,5.70
2019-03-06T17:38:33.317Z,6.23
2019-03-06T17:41:01.588Z,6.20
2019-03-06T17:43:29.777Z,5.13
2019-03-06T17:45:57.972Z,5.47
2019-03-06T17:48:26.071Z,4.87
2019-03-06T17:50:54.276Z,5.87
2019-03-06T17:53:22.475Z,6.60
2019-03-06T17:55:50.694Z,4.67
2019-03-06T17:58:19.153Z,3.90
2019-03-06T18:00:51.696Z,3.57
2019-03-06T18:03:36.649Z,5.47
2019-03-06T18:06:04.845Z,5.50
2019-03-06T18:08:33.089Z,7.40
2019-03-06T18:11:01.325Z,5.83
2019-03-06T18:13:30.080Z,5.20
2019-03-06T18:15:58.316Z,4.40
2019-03-06T18:18:26.857Z,4.87
2019-03-06T18:20:55.110Z,7.63
2019-03-06T18:23:23.311Z,4.43
2019-03-06T18:25:51.479Z,3.87
2019-03-06T18:28:20.128Z,7.00
2019-03-06T18:30:49.699Z,3.30
2019-03-06T18:33:17.988Z,10.27
2019-03-06T18:35:46.312Z,13.93
2019-03-06T18:38:14.449Z,4.60
2019-03-06T18:40:43.010Z,4.93
2019-03-06T18:43:11.192Z,3.97
2019-03-06T18:45:39.435Z,6.77
2019-03-06T18:48:09.612Z,5.93
2019-03-06T18:50:38.104Z,5.67
2019-03-06T18:53:06.305Z,4.87
2019-03-06T18:55:34.556Z,4.27
2019-03-06T18:58:02.758Z,6.17
2019-03-06T19:00:31.015Z,6.80
2019-03-06T19:02:59.221Z,5.20
2019-03-06T19:05:27.404Z,6.77
2019-03-06T19:07:55.926Z,4.13
2019-03-06T19:10:24.592Z,5.17
2019-03-06T19:12:53.141Z,5.57
2019-03-06T19:15:22.035Z,4.80
2019-03-06T19:17:50.281Z,4.07
2019-03-06T19:20:20.024Z,3.90
2019-03-06T19:22:49.061Z,5.63
2019-03-06T19:25:18.280Z,6.67
2019-03-06T19:27:47.176Z,5.00
2019-03-06T19:30:22.406Z,7.63
2019-03-06T19:32:50.660Z,4.33
2019-03-06T19:35:20.052Z,6.07
2019-03-06T19:37:48.287Z,4.23
2019-03-06T19:40:17.358Z,7.47
2019-03-06T19:42:46.548Z,6.03
2019-03-06T19:45:18.285Z,5.93
2019-03-06T19:47:50.604Z,6.20
2019-03-06T19:50:22.312Z,5.17
2019-03-06T19:52:50.585Z,3.87
2019-03-06T19:55:19.132Z,4.90
2019-03-06T19:57:50.745Z,6.20
2019-03-06T20:00:20.226Z,6.17
2019-03-06T20:02:48.781Z,7.80
2019-03-06T20:05:17.797Z,7.87
2019-03-06T20:07:47.234Z,9.33
2019-03-06T20:10:15.545Z,9.70
2019-03-06T20:12:43.832Z,7.43
2019-03-06T20:15:12.896Z,6.80
2019-03-06T20:17:41.000Z,7.83
2019-03-06T20:20:10.510Z,6.87
2019-03-06T20:22:38.752Z,6.33
2019-03-06T20:25:08.023Z,6.03
2019-03-06T20:27:36.300Z,6.80
2019-03-06T20:30:08.959Z,7.53
2019-03-06T20:32:37.154Z,4.27
2019-03-06T20:35:05.852Z,5.20
2019-03-06T20:37:34.044Z,4.90
2019-03-06T20:40:02.212Z,2.97
2019-03-06T20:42:30.614Z,4.03
2019-03-06T20:44:58.795Z,6.47
2019-03-06T20:47:27.010Z,5.63
2019-03-06T20:49:55.324Z,7.07
2019-03-06T20:52:23.523Z,6.13
2019-03-06T20:54:51.737Z,7.07
2019-03-06T20:57:19.938Z,7.20
2019-03-06T20:59:48.327Z,7.03
2019-03-06T21:02:16.832Z,5.23
2019-03-06T21:04:45.021Z,6.37
2019-03-06T21:07:13.237Z,6.77
2019-03-06T21:09:42.058Z,4.27
2019-03-06T21:12:10.333Z,6.47
2019-03-06T21:14:38.524Z,5.53
2019-03-06T21:17:06.732Z,7.27
2019-03-06T21:19:36.711Z,8.53
2019-03-06T21:22:04.845Z,6.80
2019-03-06T21:24:34.753Z,6.20
2019-03-06T21:27:02.888Z,4.20
2019-03-06T21:29:31.127Z,8.47
2019-03-06T21:31:59.342Z,5.63
2019-03-06T21:34:27.453Z,3.57
2019-03-06T21:36:55.667Z,8.17
2019-03-06T21:39:24.104Z,4.87
2019-03-06T21:41:52.243Z,5.20
2019-03-06T21:44:20.497Z,4.73
2019-03-06T21:46:48.713Z,5.67
2019-03-06T21:49:16.992Z,5.93
2019-03-06T21:51:45.283Z,5.27
2019-03-06T21:54:14.444Z,5.97
2019-03-06T21:56:42.674Z,3.67
2019-03-06T21:59:10.862Z,4.90
2019-03-06T22:01:39.036Z,5.00
2019-03-06T22:04:07.305Z,5.20
2019-03-06T22:06:35.491Z,5.47
2019-03-06T22:09:04.440Z,5.73
2019-03-06T22:11:32.919Z,5.57
2019-03-06T22:14:01.118Z,4.40
2019-03-06T22:16:29.304Z,4.83
2019-03-06T22:18:57.880Z,4.33
2019-03-06T22:21:26.322Z,3.70
2019-03-06T22:23:54.526Z,5.07
2019-03-06T22:26:22.909Z,5.60
2019-03-06T22:28:51.096Z,4.00
2019-03-06T22:31:19.216Z,2.83
2019-03-06T22:33:47.404Z,5.47
2019-03-06T22:36:15.582Z,4.60
2019-03-06T22:38:44.097Z,3.80
2019-03-06T22:41:12.302Z,4.03
2019-03-06T22:43:40.825Z,3.33
2019-03-06T22:46:09.022Z,4.83
2019-03-06T22:48:37.229Z,4.17
2019-03-06T22:51:05.338Z,4.17
2019-03-06T22:53:33.644Z,3.13
2019-03-06T22:56:01.854Z,2.50
2019-03-06T22:58:30.274Z,3.77
2019-03-06T23:01:01.778Z,3.70
2019-03-06T23:03:30.132Z,2.50
2019-03-06T23:05:58.355Z,2.67
2019-03-06T23:08:26.591Z,2.50
2019-03-06T23:10:54.721Z,3.70
2019-03-06T23:13:23.181Z,3.77
2019-03-06T23:15:51.470Z,2.33
2019-03-06T23:18:19.718Z,2.80
2019-03-06T23:20:48.043Z,3.87
2019-03-06T23:23:18.376Z,3.47
2019-03-06T23:25:46.102Z,4.33
2019-03-06T23:28:14.497Z,3.20
2019-03-06T23:30:42.988Z,5.63
2019-03-06T23:33:11.174Z,2.77
2019-03-06T23:35:39.372Z,3.27
2019-03-06T23:38:07.491Z,3.27
2019-03-06T23:40:35.688Z,3.43
2019-03-06T23:43:04.149Z,3.27
2019-03-06T23:45:32.343Z,2.70
2019-03-06T23:48:00.449Z,2.97
2019-03-06T23:50:28.709Z,3.80
2019-03-06T23:53:01.650Z,4.50
2019-03-06T23:55:31.596Z,3.10
2019-03-06T23:57:59.793Z,5.00
